createdAt,value
2023-03-02T00:01:10.735Z,4.60
2023-03-02T00:03:40.885Z,4.50
2023-03-02T00:06:09.717Z,4.60
2023-03-02T00:08:39.537Z,4.60
2023-03-02T00:11:06.740Z,4.60
2023-03-02T00:13:35.580Z,4.60
2023-03-02T00:16:02.813Z,4.50
2023-03-02T00:18:30.033Z,4.50
2023-03-02T00:20:57.119Z,4.40
2023-03-02T00:23:24.269Z,4.40
2023-03-02T00:25:51.446Z,4.40
2023-03-02T00:28:18.537Z,4.30
2023-03-02T00:30:45.753Z,4.30
2023-03-02T00:33:12.880Z,4.20
2023-03-02T00:35:41.373Z,4.20
2023-03-02T00:38:08.629Z,4.20
2023-03-02T00:40:36.456Z,4.10
2023-03-02T00:43:03.903Z,4.10
2023-03-02T00:45:31.046Z,4.10
2023-03-02T00:47:58.115Z,4.10
2023-03-02T00:50:25.314Z,4.00
2023-03-02T00:52:52.493Z,4.00
2023-03-02T00:55:19.694Z,4.00
2023-03-02T00:57:54.986Z,3.90
2023-03-02T01:00:24.394Z,3.90
2023-03-02T01:02:51.617Z,3.90
2023-03-02T01:05:18.799Z,3.90
2023-03-02T01:07:45.980Z,3.90
2023-03-02T01:10:13.524Z,3.80
2023-03-02T01:12:41.013Z,3.80
2023-03-02T01:15:09.963Z,3.80
2023-03-02T01:17:37.136Z,3.80
2023-03-02T01:20:05.652Z,3.80
2023-03-02T01:22:32.760Z,3.70
2023-03-02T01:24:59.916Z,3.70
2023-03-02T01:27:26.985Z,3.70
2023-03-02T01:29:54.766Z,3.70
2023-03-02T01:32:21.886Z,3.70
2023-03-02T01:34:49.004Z,3.70
2023-03-02T01:37:16.097Z,3.60
2023-03-02T01:39:43.161Z,3.60
2023-03-02T01:42:10.273Z,3.50
2023-03-02T01:44:47.500Z,3.50
2023-03-02T01:47:23.107Z,3.50
2023-03-02T01:49:53.042Z,3.50
2023-03-02T01:52:20.451Z,3.50
2023-03-02T01:54:50.047Z,3.50
2023-03-02T01:57:29.418Z,3.40
2023-03-02T02:00:01.061Z,3.40
2023-03-02T02:02:29.273Z,3.40
2023-03-02T02:04:57.041Z,3.40
2023-03-02T02:07:24.307Z,3.40
2023-03-02T02:09:52.888Z,3.30
2023-03-02T02:12:23.885Z,3.30
2023-03-02T02:14:51.436Z,3.30
2023-03-02T02:17:19.649Z,3.30
2023-03-02T02:20:06.749Z,3.30
2023-03-02T02:22:43.652Z,3.30
2023-03-02T02:25:34.633Z,3.30
2023-03-02T02:28:08.578Z,3.20
2023-03-02T02:30:39.217Z,3.30
2023-03-02T02:33:07.700Z,3.20
2023-03-02T02:35:38.682Z,3.20
2023-03-02T02:38:07.800Z,3.20
2023-03-02T02:40:40.824Z,3.20
2023-03-02T02:43:12.823Z,3.20
2023-03-02T02:45:40.450Z,3.10
2023-03-02T02:48:19.291Z,3.10
2023-03-02T02:50:47.337Z,3.10
2023-03-02T02:53:28.701Z,3.10
2023-03-02T02:55:58.162Z,3.00
2023-03-02T02:58:25.247Z,3.00
2023-03-02T03:00:53.989Z,3.00
2023-03-02T03:03:34.003Z,3.00
2023-03-02T03:06:03.475Z,3.00
2023-03-02T03:08:45.893Z,3.00
2023-03-02T03:11:15.853Z,3.00
2023-03-02T03:13:44.244Z,2.90
2023-03-02T03:16:14.919Z,2.90
2023-03-02T03:18:48.199Z,2.90
2023-03-02T03:21:18.446Z,2.90
2023-03-02T03:23:45.579Z,2.90
2023-03-02T03:26:12.777Z,2.90
2023-03-02T03:28:39.903Z,2.90
2023-03-02T03:31:07.215Z,2.90
2023-03-02T03:33:34.369Z,2.80
2023-03-02T03:36:01.738Z,2.80
2023-03-02T03:38:30.511Z,2.80
2023-03-02T03:40:57.584Z,2.80
2023-03-02T03:43:24.676Z,2.70
2023-03-02T03:45:52.138Z,2.70
2023-03-02T03:48:19.396Z,2.70
2023-03-02T03:50:46.518Z,2.70
2023-03-02T03:53:13.863Z,2.70
2023-03-02T03:55:40.929Z,2.70
2023-03-02T03:58:08.237Z,2.70
2023-03-02T04:00:35.436Z,2.70
2023-03-02T04:03:02.866Z,2.70
2023-03-02T04:05:31.597Z,2.70
2023-03-02T04:08:02.224Z,2.60
2023-03-02T04:10:29.850Z,2.60
2023-03-02T04:12:57.146Z,2.60
2023-03-02T04:15:24.748Z,2.60
2023-03-02T04:17:52.339Z,2.60
2023-03-02T04:20:21.233Z,2.60
2023-03-02T04:22:51.190Z,2.50
2023-03-02T04:25:20.086Z,2.60
2023-03-02T04:27:51.790Z,2.50
2023-03-02T04:30:21.802Z,2.50
2023-03-02T04:32:49.004Z,2.50
2023-03-02T04:35:16.823Z,2.50
2023-03-02T04:37:44.316Z,2.50
2023-03-02T04:40:12.651Z,2.50
2023-03-02T04:42:39.755Z,2.50
2023-03-02T04:45:07.641Z,2.50
2023-03-02T04:47:34.702Z,2.50
2023-03-02T04:50:01.865Z,2.40
2023-03-02T04:52:29.015Z,2.40
2023-03-02T04:54:56.209Z,2.30
2023-03-02T04:57:23.369Z,2.30
2023-03-02T04:59:50.452Z,2.30
2023-03-02T05:02:17.701Z,2.30
2023-03-02T05:04:44.980Z,2.20
2023-03-02T05:07:12.061Z,2.20
2023-03-02T05:09:39.180Z,2.20
2023-03-02T05:12:06.741Z,2.20
2023-03-02T05:14:33.940Z,2.20
2023-03-02T05:17:01.086Z,2.20
2023-03-02T05:19:28.532Z,2.20
2023-03-02T05:21:56.599Z,2.20
2023-03-02T05:24:23.849Z,2.20
2023-03-02T05:26:50.996Z,2.20
2023-03-02T05:29:18.298Z,2.20
2023-03-02T05:31:47.450Z,2.20
2023-03-02T05:34:16.998Z,2.20
2023-03-02T05:36:45.421Z,2.10
2023-03-02T05:39:13.465Z,2.10
2023-03-02T05:41:40.716Z,2.00
2023-03-02T05:44:10.332Z,2.10
2023-03-02T05:46:37.956Z,2.10
2023-03-02T05:49:05.173Z,2.00
2023-03-02T05:51:32.302Z,2.10
2023-03-02T05:53:59.421Z,2.10
2023-03-02T05:56:26.598Z,2.10
2023-03-02T05:58:53.869Z,2.10
2023-03-02T06:01:21.198Z,2.10
2023-03-02T06:03:48.402Z,2.20
2023-03-02T06:06:16.766Z,2.20
2023-03-02T06:08:44.431Z,2.30
2023-03-02T06:11:12.272Z,2.30
2023-03-02T06:13:39.980Z,2.40
2023-03-02T06:16:08.364Z,2.40
2023-03-02T06:18:36.086Z,2.50
2023-03-02T06:21:04.329Z,2.60
2023-03-02T06:23:31.709Z,2.60
2023-03-02T06:25:59.190Z,2.70
2023-03-02T06:28:26.808Z,2.80
2023-03-02T06:30:54.070Z,2.90
2023-03-02T06:33:21.595Z,3.00
2023-03-02T06:35:49.717Z,3.10
2023-03-02T06:38:17.185Z,3.20
2023-03-02T06:40:44.633Z,3.30
2023-03-02T06:43:16.040Z,3.40
2023-03-02T06:45:43.164Z,3.40
2023-03-02T06:48:10.304Z,3.60
2023-03-02T06:50:38.818Z,3.70
2023-03-02T06:53:06.006Z,3.80
2023-03-02T06:55:33.087Z,3.90
2023-03-02T06:58:00.216Z,4.00
2023-03-02T07:00:28.408Z,4.10
2023-03-02T07:02:56.401Z,4.20
2023-03-02T07:05:24.670Z,4.40
2023-03-02T07:07:52.520Z,4.50
2023-03-02T07:10:19.835Z,4.70
2023-03-02T07:12:46.983Z,5.00
2023-03-02T07:15:16.626Z,5.10
2023-03-02T07:17:44.922Z,5.20
2023-03-02T07:20:14.196Z,5.20
2023-03-02T07:22:42.177Z,5.30
2023-03-02T07:25:10.953Z,5.40
2023-03-02T07:27:39.008Z,5.40
2023-03-02T07:30:07.078Z,5.40
2023-03-02T07:32:34.639Z,5.50
2023-03-02T07:35:01.961Z,5.60
2023-03-02T07:37:29.164Z,5.60
2023-03-02T07:39:56.247Z,5.70
2023-03-02T07:42:23.334Z,5.70
2023-03-02T07:44:53.787Z,5.80
2023-03-02T07:47:21.003Z,5.90
2023-03-02T07:49:48.134Z,5.90
2023-03-02T07:52:15.542Z,6.00
2023-03-02T07:54:42.673Z,6.10
2023-03-02T07:57:09.778Z,6.20
2023-03-02T07:59:36.879Z,6.30
2023-03-02T08:02:04.056Z,6.40
2023-03-02T08:04:31.843Z,6.40
2023-03-02T08:06:58.970Z,6.50
2023-03-02T08:09:26.062Z,6.60
2023-03-02T08:11:53.220Z,6.70
2023-03-02T08:14:20.299Z,6.70
2023-03-02T08:16:47.710Z,6.80
2023-03-02T08:19:14.775Z,6.90
2023-03-02T08:21:41.934Z,7.00
2023-03-02T08:24:10.097Z,7.10
2023-03-02T08:26:37.522Z,7.10
2023-03-02T08:29:05.420Z,7.30
2023-03-02T08:31:33.055Z,7.40
2023-03-02T08:34:00.349Z,7.50
2023-03-02T08:36:27.454Z,7.50
2023-03-02T08:38:55.164Z,7.70
2023-03-02T08:41:23.819Z,7.70
2023-03-02T08:43:54.172Z,7.70
2023-03-02T08:46:21.826Z,7.70
2023-03-02T08:48:51.291Z,7.70
2023-03-02T08:51:23.852Z,7.80
2023-03-02T08:53:52.579Z,7.80
2023-03-02T08:56:22.970Z,7.90
2023-03-02T08:58:51.188Z,8.00
2023-03-02T09:01:27.002Z,8.00
2023-03-02T09:03:54.491Z,8.10
2023-03-02T09:06:21.684Z,8.20
2023-03-02T09:08:48.985Z,8.20
2023-03-02T09:11:16.680Z,8.30
2023-03-02T09:13:44.002Z,8.40
2023-03-02T09:16:12.144Z,8.50
2023-03-02T09:18:40.461Z,8.50
2023-03-02T09:21:08.110Z,8.60
2023-03-02T09:23:36.668Z,8.70
2023-03-02T09:26:04.883Z,8.80
2023-03-02T09:28:32.525Z,8.90
2023-03-02T09:31:01.926Z,9.00
2023-03-02T09:33:29.728Z,9.00
2023-03-02T09:35:56.838Z,9.20
2023-03-02T09:38:24.309Z,9.30
2023-03-02T09:41:07.286Z,9.40
2023-03-02T09:43:59.942Z,9.50
2023-03-02T09:46:37.741Z,9.60
2023-03-02T09:49:32.582Z,9.70
2023-03-02T09:52:11.782Z,9.80
2023-03-02T09:54:40.910Z,9.90
2023-03-02T09:57:28.525Z,9.90
2023-03-02T10:00:24.834Z,10.00
2023-03-02T10:03:19.463Z,10.00
2023-03-02T10:05:49.074Z,10.10
2023-03-02T10:08:20.755Z,10.10
2023-03-02T10:11:09.434Z,10.10
2023-03-02T10:13:36.457Z,10.10
2023-03-02T10:16:21.849Z,10.20
2023-03-02T10:19:12.677Z,10.30
2023-03-02T10:21:44.232Z,10.30
2023-03-02T10:24:50.127Z,10.30
2023-03-02T10:27:26.334Z,10.30
2023-03-02T10:30:18.406Z,10.40
2023-03-02T10:32:49.333Z,10.50
2023-03-02T10:35:21.058Z,10.50
2023-03-02T10:37:49.066Z,10.60
2023-03-02T10:40:40.708Z,10.60
2023-03-02T10:43:25.009Z,10.70
2023-03-02T10:46:03.436Z,10.70
2023-03-02T10:48:30.941Z,10.70
2023-03-02T10:51:00.401Z,10.80
2023-03-02T10:53:29.080Z,10.80
2023-03-02T10:55:56.353Z,10.90
2023-03-02T10:58:26.219Z,10.90
2023-03-02T11:00:59.296Z,10.90
2023-03-02T11:03:29.896Z,11.00
2023-03-02T11:06:00.504Z,11.00
2023-03-02T11:08:28.912Z,11.00
2023-03-02T11:11:04.462Z,11.00
2023-03-02T11:13:34.767Z,11.00
2023-03-02T11:16:24.105Z,11.10
2023-03-02T11:19:16.239Z,11.20
2023-03-02T11:21:52.380Z,11.20
2023-03-02T11:24:33.579Z,11.20
2023-03-02T11:27:03.675Z,11.30
2023-03-02T11:29:54.731Z,11.30
2023-03-02T11:32:34.594Z,11.30
2023-03-02T11:35:04.792Z,11.30
2023-03-02T11:37:51.109Z,11.30
2023-03-02T11:40:44.138Z,11.40
2023-03-02T11:43:13.027Z,11.40
2023-03-02T11:45:51.211Z,11.50
2023-03-02T11:48:33.737Z,11.60
2023-03-02T11:51:04.472Z,11.60
2023-03-02T11:53:50.281Z,11.60
2023-03-02T11:56:17.763Z,11.60
2023-03-02T11:58:51.014Z,11.70
2023-03-02T12:01:22.682Z,11.70
2023-03-02T12:03:49.863Z,11.70
2023-03-02T12:06:24.714Z,11.60
2023-03-02T12:09:12.405Z,11.70
2023-03-02T12:11:41.262Z,11.70
2023-03-02T12:14:38.902Z,11.70
2023-03-02T12:17:19.428Z,11.80
2023-03-02T12:19:47.387Z,11.80
2023-03-02T12:22:27.331Z,11.80
2023-03-02T12:25:07.095Z,11.80
2023-03-02T12:27:41.791Z,11.80
2023-03-02T12:30:24.652Z,11.80
2023-03-02T12:33:11.893Z,11.90
2023-03-02T12:35:39.304Z,11.90
2023-03-02T12:38:32.161Z,11.90
2023-03-02T12:41:36.387Z,12.00
2023-03-02T12:44:31.436Z,12.00
2023-03-02T12:46:59.319Z,12.00
2023-03-02T12:49:30.826Z,12.10
2023-03-02T12:52:00.860Z,12.10
2023-03-02T12:54:30.934Z,12.10
2023-03-02T12:57:20.071Z,12.10
2023-03-02T12:59:59.566Z,12.20
2023-03-02T13:02:35.084Z,12.20
2023-03-02T13:05:06.006Z,12.20
2023-03-02T13:07:50.855Z,12.20
2023-03-02T13:10:30.701Z,12.20
2023-03-02T13:13:00.202Z,12.30
2023-03-02T13:15:27.613Z,12.30
2023-03-02T13:17:57.584Z,12.30
2023-03-02T13:20:28.085Z,12.20
2023-03-02T13:22:55.950Z,12.20
2023-03-02T13:25:32.306Z,12.20
2023-03-02T13:28:04.517Z,12.20
2023-03-02T13:30:33.352Z,12.20
2023-03-02T13:33:03.922Z,12.20
2023-03-02T13:35:34.132Z,12.20
2023-03-02T13:38:13.777Z,12.20
2023-03-02T13:40:46.109Z,12.20
2023-03-02T13:43:28.995Z,12.20
2023-03-02T13:45:57.432Z,12.20
2023-03-02T13:48:25.144Z,12.20
2023-03-02T13:50:58.644Z,12.20
2023-03-02T13:53:30.132Z,12.20
2023-03-02T13:56:00.324Z,12.20
2023-03-02T13:58:29.817Z,12.20
2023-03-02T14:00:57.181Z,12.20
2023-03-02T14:03:27.620Z,12.10
2023-03-02T14:05:55.872Z,12.10
2023-03-02T14:08:23.201Z,12.10
2023-03-02T14:10:53.240Z,12.10
2023-03-02T14:13:25.184Z,12.10
2023-03-02T14:15:53.852Z,12.10
2023-03-02T14:18:29.781Z,12.10
2023-03-02T14:20:57.895Z,12.10
2023-03-02T14:23:26.089Z,12.10
2023-03-02T14:25:55.400Z,12.00
2023-03-02T14:28:30.297Z,12.00
2023-03-02T14:30:58.788Z,12.00
2023-03-02T14:33:26.066Z,11.90
2023-03-02T14:35:56.311Z,12.00
2023-03-02T14:38:26.719Z,12.00
2023-03-02T14:40:54.032Z,11.90
2023-03-02T14:43:23.472Z,11.90
2023-03-02T14:45:52.220Z,11.90
2023-03-02T14:48:19.427Z,11.90
2023-03-02T14:50:49.397Z,11.80
2023-03-02T14:53:22.987Z,11.80
2023-03-02T14:55:50.173Z,11.80
2023-03-02T14:58:20.242Z,11.70
2023-03-02T15:00:47.799Z,11.70
2023-03-02T15:03:19.293Z,11.70
2023-03-02T15:06:00.270Z,11.60
2023-03-02T15:08:28.245Z,11.60
2023-03-02T15:10:55.519Z,11.60
2023-03-02T15:13:22.635Z,11.60
2023-03-02T15:15:50.208Z,11.50
2023-03-02T15:18:19.917Z,11.50
2023-03-02T15:20:47.268Z,11.50
2023-03-02T15:23:14.466Z,11.40
2023-03-02T15:25:42.999Z,11.40
2023-03-02T15:28:10.727Z,11.30
2023-03-02T15:30:37.865Z,11.30
2023-03-02T15:33:05.252Z,11.30
2023-03-02T15:35:32.496Z,11.20
2023-03-02T15:38:02.599Z,11.20
2023-03-02T15:40:29.729Z,11.10
2023-03-02T15:42:56.886Z,11.10
2023-03-02T15:45:23.963Z,11.00
2023-03-02T15:47:51.049Z,11.00
2023-03-02T15:50:19.412Z,11.00
2023-03-02T15:52:46.523Z,10.90
2023-03-02T15:55:15.986Z,10.90
2023-03-02T15:57:45.368Z,10.80
2023-03-02T16:00:13.590Z,10.70
2023-03-02T16:02:41.158Z,10.70
2023-03-02T16:05:09.214Z,10.60
2023-03-02T16:07:37.280Z,10.60
2023-03-02T16:10:04.725Z,10.50
2023-03-02T16:12:31.809Z,10.50
2023-03-02T16:14:58.987Z,10.40
2023-03-02T16:17:26.070Z,10.40
2023-03-02T16:19:53.261Z,10.30
2023-03-02T16:22:20.376Z,10.20
2023-03-02T16:24:49.432Z,10.20
2023-03-02T16:27:16.777Z,10.10
2023-03-02T16:29:44.018Z,10.00
2023-03-02T16:32:11.340Z,9.90
2023-03-02T16:34:38.512Z,9.90
2023-03-02T16:37:05.643Z,9.80
2023-03-02T16:39:33.051Z,9.70
2023-03-02T16:42:00.185Z,9.60
2023-03-02T16:44:27.307Z,9.40
2023-03-02T16:46:56.970Z,9.40
2023-03-02T16:49:24.422Z,9.30
2023-03-02T16:51:56.943Z,9.10
2023-03-02T16:54:24.507Z,9.10
2023-03-02T16:56:51.601Z,9.00
2023-03-02T16:59:18.694Z,8.90
2023-03-02T17:01:45.886Z,8.80
2023-03-02T17:04:13.135Z,8.70
2023-03-02T17:06:59.620Z,8.60
2023-03-02T17:09:28.071Z,8.50
2023-03-02T17:11:55.332Z,8.50
2023-03-02T17:14:22.826Z,8.40
2023-03-02T17:16:49.921Z,8.30
2023-03-02T17:19:17.031Z,8.30
2023-03-02T17:21:44.244Z,8.20
2023-03-02T17:24:13.824Z,8.20
2023-03-02T17:26:41.023Z,8.10
2023-03-02T17:29:08.139Z,8.10
2023-03-02T17:31:35.265Z,8.10
2023-03-02T17:34:02.464Z,8.00
2023-03-02T17:36:32.259Z,7.90
2023-03-02T17:38:59.354Z,7.90
2023-03-02T17:41:26.740Z,7.80
2023-03-02T17:43:53.919Z,7.80
2023-03-02T17:46:25.317Z,7.70
2023-03-02T17:48:55.514Z,7.70
2023-03-02T17:51:24.425Z,7.70
2023-03-02T17:53:53.164Z,7.60
2023-03-02T17:56:24.320Z,7.60
2023-03-02T17:59:04.233Z,7.50
2023-03-02T18:01:32.499Z,7.50
2023-03-02T18:04:00.412Z,7.50
2023-03-02T18:06:28.084Z,7.40
2023-03-02T18:08:55.335Z,7.40
2023-03-02T18:11:24.735Z,7.30
2023-03-02T18:13:55.104Z,7.30
2023-03-02T18:16:28.201Z,7.30
2023-03-02T18:18:58.462Z,7.30
2023-03-02T18:21:25.874Z,7.30
2023-03-02T18:23:53.028Z,7.20
2023-03-02T18:26:20.490Z,7.20
2023-03-02T18:28:47.616Z,7.10
2023-03-02T18:31:16.430Z,7.10
2023-03-02T18:33:44.696Z,7.10
2023-03-02T18:36:11.849Z,7.00
2023-03-02T18:38:39.146Z,7.00
2023-03-02T18:41:08.192Z,7.00
2023-03-02T18:43:38.953Z,7.00
2023-03-02T18:46:08.629Z,7.00
2023-03-02T18:48:35.853Z,6.90
2023-03-02T18:51:03.121Z,6.90
2023-03-02T18:53:30.201Z,6.90
2023-03-02T18:55:57.475Z,6.90
2023-03-02T18:58:34.057Z,6.90
2023-03-02T19:01:01.832Z,6.90
2023-03-02T19:03:29.900Z,6.80
2023-03-02T19:05:58.232Z,6.80
2023-03-02T19:08:25.696Z,6.80
2023-03-02T19:10:54.492Z,6.80
2023-03-02T19:13:21.835Z,6.80
2023-03-02T19:15:54.624Z,6.70
2023-03-02T19:18:23.477Z,6.70
2023-03-02T19:20:52.085Z,6.70
2023-03-02T19:23:19.215Z,6.70
2023-03-02T19:25:46.649Z,6.60
2023-03-02T19:28:14.111Z,6.70
2023-03-02T19:30:41.359Z,6.60
2023-03-02T19:33:09.951Z,6.60
2023-03-02T19:35:39.894Z,6.60
2023-03-02T19:38:07.950Z,6.50
2023-03-02T19:40:36.620Z,6.60
2023-03-02T19:43:06.706Z,6.50
2023-03-02T19:45:35.697Z,6.50
2023-03-02T19:48:05.913Z,6.50
2023-03-02T19:50:33.123Z,6.50
2023-03-02T19:53:00.273Z,6.50
2023-03-02T19:55:27.579Z,6.40
2023-03-02T19:58:01.040Z,6.40
2023-03-02T20:00:30.540Z,6.40
2023-03-02T20:02:58.002Z,6.40
2023-03-02T20:05:27.558Z,6.40
2023-03-02T20:07:55.120Z,6.30
2023-03-02T20:10:34.717Z,6.30
2023-03-02T20:13:03.581Z,6.30
2023-03-02T20:15:32.680Z,6.30
2023-03-02T20:18:02.600Z,6.30
2023-03-02T20:20:30.981Z,6.30
2023-03-02T20:23:00.141Z,6.30
2023-03-02T20:25:28.591Z,6.30
2023-03-02T20:28:05.502Z,6.30
2023-03-02T20:30:43.957Z,6.30
2023-03-02T20:33:11.380Z,6.30
2023-03-02T20:35:41.219Z,6.20
2023-03-02T20:38:15.937Z,6.20
2023-03-02T20:40:43.528Z,6.20
2023-03-02T20:43:11.232Z,6.20
2023-03-02T20:45:39.503Z,6.20
2023-03-02T20:48:07.463Z,6.20
2023-03-02T20:50:36.342Z,6.20
2023-03-02T20:53:05.434Z,6.20
2023-03-02T20:55:33.071Z,6.20
2023-03-02T20:58:01.230Z,6.20
2023-03-02T21:00:29.856Z,6.20
2023-03-02T21:02:57.924Z,6.20
2023-03-02T21:05:27.008Z,6.10
2023-03-02T21:07:55.161Z,6.10
2023-03-02T21:10:32.912Z,6.10
2023-03-02T21:13:00.280Z,6.10
2023-03-02T21:15:28.132Z,6.10
2023-03-02T21:17:56.117Z,6.10
2023-03-02T21:20:25.470Z,6.10
2023-03-02T21:22:52.560Z,6.10
2023-03-02T21:25:20.665Z,6.10
2023-03-02T21:27:47.909Z,6.10
2023-03-02T21:30:22.473Z,6.00
2023-03-02T21:32:49.685Z,6.10
2023-03-02T21:35:22.127Z,6.00
2023-03-02T21:37:52.537Z,6.00
2023-03-02T21:40:23.333Z,6.00
2023-03-02T21:42:50.474Z,6.00
2023-03-02T21:45:18.973Z,6.00
2023-03-02T21:47:46.271Z,6.00
2023-03-02T21:50:18.657Z,5.90
2023-03-02T21:52:45.762Z,5.90
2023-03-02T21:55:13.624Z,5.90
2023-03-02T21:57:41.712Z,5.90
2023-03-02T22:00:10.512Z,5.90
2023-03-02T22:02:37.968Z,5.90
2023-03-02T22:05:05.545Z,5.90
2023-03-02T22:07:32.653Z,5.80
2023-03-02T22:09:59.744Z,5.80
2023-03-02T22:12:27.232Z,5.80
2023-03-02T22:14:54.837Z,5.80
2023-03-02T22:17:24.638Z,5.80
2023-03-02T22:19:52.374Z,5.70
2023-03-02T22:22:25.948Z,5.80
2023-03-02T22:24:54.347Z,5.80
2023-03-02T22:27:25.866Z,5.80
2023-03-02T22:29:57.786Z,5.70
2023-03-02T22:32:27.737Z,5.80
2023-03-02T22:35:00.311Z,5.70
2023-03-02T22:37:33.850Z,5.70
2023-03-02T22:40:07.078Z,5.70
2023-03-02T22:42:34.404Z,5.70
2023-03-02T22:45:22.207Z,5.70
2023-03-02T22:47:51.556Z,5.60
2023-03-02T22:50:18.773Z,5.60
2023-03-02T22:52:45.884Z,5.60
2023-03-02T22:55:28.124Z,5.60
2023-03-02T22:57:55.281Z,5.50
2023-03-02T23:00:40.287Z,5.50
2023-03-02T23:03:21.510Z,5.50
2023-03-02T23:05:51.821Z,5.50
2023-03-02T23:08:30.092Z,5.40
2023-03-02T23:10:59.304Z,5.40
2023-03-02T23:13:38.455Z,5.40
2023-03-02T23:16:19.426Z,5.30
2023-03-02T23:18:50.572Z,5.30
2023-03-02T23:21:23.892Z,5.30
2023-03-02T23:23:51.165Z,5.30
2023-03-02T23:26:20.736Z,5.20
2023-03-02T23:28:50.164Z,5.20
2023-03-02T23:31:21.392Z,5.20
2023-03-02T23:33:48.886Z,5.10
2023-03-02T23:36:16.267Z,5.10
2023-03-02T23:38:43.372Z,5.10
2023-03-02T23:41:10.525Z,5.10
2023-03-02T23:43:37.676Z,5.00
2023-03-02T23:46:05.059Z,5.00
2023-03-02T23:48:34.211Z,4.90
2023-03-02T23:51:01.534Z,5.00
2023-03-02T23:53:28.708Z,4.90
2023-03-02T23:55:55.961Z,4.90
2023-03-02T23:58:23.217Z,4.90
